createdAt,value
2023-01-30T00:01:56.312Z,100.00
2023-01-30T00:04:23.533Z,100.00
2023-01-30T00:06:50.696Z,100.00
2023-01-30T00:09:17.927Z,100.00
2023-01-30T00:11:45.074Z,100.00
2023-01-30T00:14:12.170Z,100.00
2023-01-30T00:16:39.383Z,100.00
2023-01-30T00:19:06.481Z,100.00
2023-01-30T00:21:33.662Z,100.00
2023-01-30T00:24:01.198Z,100.00
2023-01-30T00:26:28.464Z,100.00
2023-01-30T00:28:55.683Z,100.00
2023-01-30T00:31:23.190Z,100.00
2023-01-30T00:33:50.635Z,100.00
2023-01-30T00:36:18.007Z,100.00
2023-01-30T00:38:45.141Z,100.00
2023-01-30T00:41:13.856Z,100.00
2023-01-30T00:44:08.012Z,100.00
2023-01-30T00:46:53.878Z,100.00
2023-01-30T00:49:21.576Z,100.00
2023-01-30T00:51:48.996Z,100.00
2023-01-30T00:54:16.199Z,100.00
2023-01-30T00:56:43.382Z,100.00
2023-01-30T00:59:10.507Z,100.00
2023-01-30T01:01:38.177Z,100.00
2023-01-30T01:04:07.045Z,100.00
2023-01-30T01:06:34.218Z,100.00
2023-01-30T01:09:01.760Z,100.00
2023-01-30T01:11:30.102Z,99.92
2023-01-30T01:13:59.694Z,99.97
2023-01-30T01:16:29.144Z,99.84
2023-01-30T01:18:58.734Z,99.70
2023-01-30T01:21:26.285Z,99.84
2023-01-30T01:23:56.538Z,99.63
2023-01-30T01:26:23.633Z,99.88
2023-01-30T01:28:55.596Z,99.54
2023-01-30T01:31:24.553Z,99.51
2023-01-30T01:33:52.148Z,99.16
2023-01-30T01:36:42.340Z,99.35
2023-01-30T01:39:06.436Z,99.56
2023-01-30T01:41:33.434Z,99.52
2023-01-30T01:44:10.005Z,99.16
2023-01-30T01:46:45.344Z,99.19
2023-01-30T01:49:21.546Z,99.29
2023-01-30T01:52:00.132Z,99.20
2023-01-30T01:54:36.025Z,99.39
2023-01-30T01:57:06.963Z,98.94
2023-01-30T01:59:42.663Z,99.12
2023-01-30T02:02:13.252Z,99.47
2023-01-30T02:05:04.103Z,98.98
2023-01-30T02:07:37.884Z,99.00
2023-01-30T02:10:07.279Z,98.77
2023-01-30T02:12:34.418Z,99.01
2023-01-30T02:15:02.632Z,98.55
2023-01-30T02:17:29.733Z,98.72
2023-01-30T02:20:06.912Z,98.81
2023-01-30T02:22:55.053Z,98.88
2023-01-30T02:25:49.597Z,98.68
2023-01-30T02:28:25.663Z,98.64
2023-01-30T02:31:33.887Z,98.53
2023-01-30T02:34:10.375Z,98.35
2023-01-30T02:37:08.108Z,98.70
2023-01-30T02:40:26.326Z,98.41
2023-01-30T02:42:59.363Z,98.06
2023-01-30T02:45:54.012Z,97.71
2023-01-30T02:48:27.518Z,97.52
2023-01-30T02:51:19.804Z,97.61
2023-01-30T02:53:48.875Z,97.42
2023-01-30T02:56:16.070Z,97.28
2023-01-30T02:58:50.154Z,96.92
2023-01-30T03:01:26.627Z,97.24
2023-01-30T03:04:35.889Z,96.96
2023-01-30T03:07:50.044Z,96.77
2023-01-30T03:10:32.155Z,96.81
2023-01-30T03:13:16.750Z,96.63
2023-01-30T03:15:50.552Z,96.47
2023-01-30T03:18:19.829Z,96.46
2023-01-30T03:20:47.220Z,96.48
2023-01-30T03:23:14.591Z,96.48
2023-01-30T03:25:44.868Z,96.19
2023-01-30T03:28:14.904Z,96.30
2023-01-30T03:30:42.004Z,96.01
2023-01-30T03:33:10.742Z,95.53
2023-01-30T03:35:39.713Z,95.57
2023-01-30T03:38:07.367Z,95.12
2023-01-30T03:40:35.633Z,95.32
2023-01-30T03:43:02.921Z,94.97
2023-01-30T03:45:30.477Z,94.98
2023-01-30T03:47:58.634Z,94.58
2023-01-30T03:50:25.741Z,94.77
2023-01-30T03:52:53.146Z,94.50
2023-01-30T03:55:21.838Z,94.42
2023-01-30T03:57:49.004Z,94.41
2023-01-30T04:00:18.695Z,94.13
2023-01-30T04:02:49.374Z,94.66
2023-01-30T04:05:19.038Z,94.61
2023-01-30T04:07:51.730Z,94.34
2023-01-30T04:10:20.231Z,94.33
2023-01-30T04:12:47.981Z,94.07
2023-01-30T04:15:16.598Z,94.46
2023-01-30T04:18:03.342Z,94.32
2023-01-30T04:20:49.195Z,94.69
2023-01-30T04:23:21.077Z,95.02
2023-01-30T04:25:48.631Z,95.02
2023-01-30T04:28:18.516Z,95.49
2023-01-30T04:30:45.876Z,96.08
2023-01-30T04:33:35.538Z,97.59
2023-01-30T04:36:05.215Z,97.95
2023-01-30T04:38:34.221Z,97.92
2023-01-30T04:41:02.166Z,98.18
2023-01-30T04:43:32.262Z,98.81
2023-01-30T04:46:17.588Z,99.18
2023-01-30T04:48:44.939Z,99.37
2023-01-30T04:51:12.099Z,99.35
2023-01-30T04:53:39.173Z,99.10
2023-01-30T04:56:07.098Z,99.07
2023-01-30T04:58:34.266Z,99.37
2023-01-30T05:01:15.277Z,99.66
2023-01-30T05:03:43.524Z,98.90
2023-01-30T05:06:10.663Z,99.02
2023-01-30T05:08:37.832Z,99.44
2023-01-30T05:11:06.589Z,99.13
2023-01-30T05:13:33.765Z,99.55
2023-01-30T05:16:00.980Z,99.11
2023-01-30T05:18:28.117Z,99.22
2023-01-30T05:20:55.765Z,99.41
2023-01-30T05:23:22.904Z,99.28
2023-01-30T05:25:49.969Z,99.15
2023-01-30T05:28:17.037Z,99.63
2023-01-30T05:30:46.257Z,99.42
2023-01-30T05:33:14.164Z,99.77
2023-01-30T05:35:49.856Z,99.68
2023-01-30T05:38:17.101Z,99.70
2023-01-30T05:40:44.214Z,99.61
2023-01-30T05:43:11.374Z,99.69
2023-01-30T05:45:38.647Z,99.67
2023-01-30T05:48:05.924Z,100.00
2023-01-30T05:50:33.098Z,100.00
2023-01-30T05:53:00.234Z,100.00
2023-01-30T05:55:27.382Z,100.00
2023-01-30T05:57:54.555Z,100.00
2023-01-30T06:00:22.176Z,100.00
2023-01-30T06:02:49.298Z,100.00
2023-01-30T06:05:16.928Z,100.00
2023-01-30T06:07:44.197Z,100.00
2023-01-30T06:10:11.726Z,100.00
2023-01-30T06:12:38.844Z,100.00
2023-01-30T06:15:06.519Z,100.00
2023-01-30T06:17:33.668Z,100.00
2023-01-30T06:20:00.723Z,100.00
2023-01-30T06:22:27.959Z,100.00
2023-01-30T06:24:55.208Z,100.00
2023-01-30T06:27:22.268Z,100.00
2023-01-30T06:29:49.365Z,100.00
2023-01-30T06:32:16.574Z,100.00
2023-01-30T06:34:43.633Z,100.00
2023-01-30T06:37:10.772Z,100.00
2023-01-30T06:39:38.081Z,100.00
2023-01-30T06:42:05.422Z,100.00
2023-01-30T06:44:32.519Z,100.00
2023-01-30T06:46:59.740Z,100.00
2023-01-30T06:49:27.459Z,100.00
2023-01-30T06:51:54.580Z,100.00
2023-01-30T06:54:21.704Z,100.00
2023-01-30T06:56:48.743Z,100.00
2023-01-30T06:59:15.878Z,100.00
2023-01-30T07:01:43.160Z,100.00
2023-01-30T07:04:10.296Z,100.00
2023-01-30T07:06:39.036Z,100.00
2023-01-30T07:09:07.187Z,100.00
2023-01-30T07:11:34.242Z,100.00
2023-01-30T07:14:01.362Z,100.00
2023-01-30T07:16:29.780Z,100.00
2023-01-30T07:18:59.952Z,100.00
2023-01-30T07:21:27.571Z,100.00
2023-01-30T07:23:54.735Z,100.00
2023-01-30T07:26:22.123Z,100.00
2023-01-30T07:28:49.246Z,100.00
2023-01-30T07:31:16.415Z,100.00
2023-01-30T07:33:43.549Z,100.00
2023-01-30T07:36:10.711Z,100.00
2023-01-30T07:38:37.791Z,100.00
2023-01-30T07:41:05.016Z,100.00
2023-01-30T07:43:32.803Z,100.00
2023-01-30T07:46:00.915Z,100.00
2023-01-30T07:48:28.029Z,100.00
2023-01-30T07:50:59.345Z,100.00
2023-01-30T07:53:26.548Z,100.00
2023-01-30T07:55:53.706Z,100.00
2023-01-30T07:58:20.793Z,100.00
2023-01-30T08:00:48.043Z,100.00
2023-01-30T08:03:16.663Z,100.00
2023-01-30T08:05:47.008Z,100.00
2023-01-30T08:08:14.871Z,100.00
2023-01-30T08:10:42.305Z,100.00
2023-01-30T08:13:09.539Z,100.00
2023-01-30T08:15:36.743Z,100.00
2023-01-30T08:18:04.128Z,100.00
2023-01-30T08:20:31.340Z,100.00
2023-01-30T08:22:59.727Z,100.00
2023-01-30T08:25:26.821Z,100.00
2023-01-30T08:27:54.482Z,100.00
2023-01-30T08:30:22.885Z,100.00
2023-01-30T08:32:50.230Z,100.00
2023-01-30T08:35:18.205Z,100.00
2023-01-30T08:37:45.446Z,100.00
2023-01-30T08:40:13.096Z,100.00
2023-01-30T08:42:40.282Z,100.00
2023-01-30T08:45:08.030Z,100.00
2023-01-30T08:47:35.805Z,100.00
2023-01-30T08:50:04.258Z,100.00
2023-01-30T08:52:33.569Z,100.00
2023-01-30T08:55:00.743Z,100.00
2023-01-30T08:57:28.052Z,100.00
2023-01-30T08:59:55.243Z,100.00
2023-01-30T09:02:22.582Z,100.00
2023-01-30T09:04:49.813Z,100.00
2023-01-30T09:07:16.915Z,100.00
2023-01-30T09:09:43.995Z,100.00
2023-01-30T09:12:11.089Z,100.00
2023-01-30T09:14:38.151Z,100.00
2023-01-30T09:17:05.233Z,100.00
2023-01-30T09:19:32.354Z,100.00
2023-01-30T09:21:59.545Z,100.00
2023-01-30T09:24:27.011Z,100.00
2023-01-30T09:26:57.342Z,100.00
2023-01-30T09:29:25.399Z,100.00
2023-01-30T09:31:52.597Z,100.00
2023-01-30T09:34:19.948Z,100.00
2023-01-30T09:36:47.006Z,100.00
2023-01-30T09:39:14.094Z,100.00
2023-01-30T09:42:06.046Z,100.00
2023-01-30T09:44:57.515Z,100.00
2023-01-30T09:47:49.080Z,100.00
2023-01-30T09:50:40.732Z,100.00
2023-01-30T09:53:26.147Z,100.00
2023-01-30T09:55:53.379Z,100.00
2023-01-30T09:58:23.075Z,100.00
2023-01-30T10:00:55.512Z,100.00
2023-01-30T10:03:40.126Z,100.00
2023-01-30T10:06:16.630Z,100.00
2023-01-30T10:09:06.786Z,100.00
2023-01-30T10:11:52.153Z,100.00
2023-01-30T10:14:25.243Z,100.00
2023-01-30T10:17:23.667Z,100.00
2023-01-30T10:20:18.005Z,100.00
2023-01-30T10:23:06.462Z,100.00
2023-01-30T10:25:56.235Z,100.00
2023-01-30T10:28:23.233Z,100.00
2023-01-30T10:30:55.133Z,100.00
2023-01-30T10:33:28.834Z,100.00
2023-01-30T10:36:04.652Z,100.00
2023-01-30T10:38:50.089Z,100.00
2023-01-30T10:41:27.243Z,100.00
2023-01-30T10:44:06.335Z,100.00
2023-01-30T10:46:48.904Z,100.00
2023-01-30T10:49:23.062Z,100.00
2023-01-30T10:52:11.756Z,100.00
2023-01-30T10:54:48.740Z,100.00
2023-01-30T10:57:29.615Z,100.00
2023-01-30T11:00:05.813Z,100.00
2023-01-30T11:02:51.901Z,100.00
2023-01-30T11:05:24.548Z,100.00
2023-01-30T11:07:51.785Z,100.00
2023-01-30T11:10:24.283Z,100.00
2023-01-30T11:13:00.265Z,100.00
2023-01-30T11:15:45.832Z,100.00
2023-01-30T11:19:01.803Z,100.00
2023-01-30T11:21:27.061Z,100.00
2023-01-30T11:24:04.951Z,100.00
2023-01-30T11:26:46.748Z,100.00
2023-01-30T11:29:32.044Z,100.00
2023-01-30T11:32:05.959Z,100.00
2023-01-30T11:34:33.507Z,100.00
2023-01-30T11:37:23.105Z,100.00
2023-01-30T11:39:53.054Z,100.00
2023-01-30T11:42:24.533Z,100.00
2023-01-30T11:45:17.278Z,100.00
2023-01-30T11:47:59.368Z,100.00
2023-01-30T11:50:37.055Z,100.00
2023-01-30T11:54:03.131Z,100.00
2023-01-30T11:56:36.333Z,100.00
2023-01-30T11:59:07.967Z,100.00
2023-01-30T12:01:37.820Z,100.00
2023-01-30T12:04:13.089Z,100.00
2023-01-30T12:06:42.987Z,100.00
2023-01-30T12:09:28.826Z,100.00
2023-01-30T12:11:56.132Z,100.00
2023-01-30T12:14:46.956Z,100.00
2023-01-30T12:17:22.653Z,100.00
2023-01-30T12:19:57.387Z,100.00
2023-01-30T12:22:53.253Z,100.00
2023-01-30T12:25:34.392Z,100.00
2023-01-30T12:28:24.365Z,100.00
2023-01-30T12:31:12.328Z,100.00
2023-01-30T12:33:40.084Z,100.00
2023-01-30T12:36:23.187Z,100.00
2023-01-30T12:38:53.344Z,100.00
2023-01-30T12:41:27.083Z,100.00
2023-01-30T12:44:14.543Z,100.00
2023-01-30T12:46:47.392Z,100.00
2023-01-30T12:49:55.398Z,100.00
2023-01-30T12:52:22.630Z,100.00
2023-01-30T12:55:21.993Z,100.00
2023-01-30T12:58:02.842Z,100.00
2023-01-30T13:01:02.508Z,100.00
2023-01-30T13:03:41.908Z,100.00
2023-01-30T13:06:27.037Z,100.00
2023-01-30T13:09:32.541Z,100.00
2023-01-30T13:12:12.492Z,100.00
2023-01-30T13:14:53.159Z,100.00
2023-01-30T13:17:38.699Z,100.00
2023-01-30T13:20:22.868Z,100.00
2023-01-30T13:23:06.513Z,100.00
2023-01-30T13:25:46.680Z,100.00
2023-01-30T13:28:18.334Z,100.00
2023-01-30T13:30:48.748Z,100.00
2023-01-30T13:33:38.482Z,100.00
2023-01-30T13:36:22.176Z,100.00
2023-01-30T13:39:12.634Z,100.00
2023-01-30T13:41:55.189Z,100.00
2023-01-30T13:44:27.936Z,100.00
2023-01-30T13:46:57.201Z,100.00
2023-01-30T13:50:00.382Z,100.00
2023-01-30T13:52:35.404Z,100.00
2023-01-30T13:55:29.744Z,100.00
2023-01-30T13:58:10.753Z,100.00
2023-01-30T14:00:38.110Z,100.00
2023-01-30T14:03:07.739Z,100.00
2023-01-30T14:06:01.211Z,100.00
2023-01-30T14:08:35.201Z,100.00
2023-01-30T14:11:02.669Z,100.00
2023-01-30T14:13:31.340Z,100.00
2023-01-30T14:16:05.610Z,100.00
2023-01-30T14:18:42.653Z,100.00
2023-01-30T14:21:20.578Z,100.00
2023-01-30T14:24:01.766Z,100.00
2023-01-30T14:26:50.644Z,100.00
2023-01-30T14:29:42.571Z,100.00
2023-01-30T14:32:13.102Z,100.00
2023-01-30T14:34:44.462Z,100.00
2023-01-30T14:37:30.057Z,100.00
2023-01-30T14:39:58.488Z,100.00
2023-01-30T14:42:28.326Z,100.00
2023-01-30T14:45:06.101Z,100.00
2023-01-30T14:47:46.708Z,100.00
2023-01-30T14:50:22.865Z,100.00
2023-01-30T14:52:55.804Z,100.00
2023-01-30T14:55:29.781Z,100.00
2023-01-30T14:58:01.865Z,100.00
2023-01-30T15:00:36.644Z,100.00
2023-01-30T15:03:09.829Z,100.00
2023-01-30T15:05:45.476Z,100.00
2023-01-30T15:08:15.653Z,100.00
2023-01-30T15:11:03.831Z,100.00
2023-01-30T15:13:49.532Z,100.00
2023-01-30T15:16:37.888Z,100.00
2023-01-30T15:19:24.444Z,100.00
2023-01-30T15:22:11.827Z,100.00
2023-01-30T15:24:59.932Z,100.00
2023-01-30T15:28:14.685Z,100.00
2023-01-30T15:31:05.608Z,100.00
2023-01-30T15:33:32.907Z,100.00
2023-01-30T15:36:00.931Z,100.00
2023-01-30T15:38:32.156Z,100.00
2023-01-30T15:41:04.711Z,100.00
2023-01-30T15:43:54.316Z,100.00
2023-01-30T15:46:33.234Z,100.00
2023-01-30T15:49:30.993Z,100.00
2023-01-30T15:52:03.512Z,100.00
2023-01-30T15:54:30.841Z,100.00
2023-01-30T15:56:58.943Z,100.00
2023-01-30T15:59:35.073Z,100.00
2023-01-30T16:02:21.612Z,100.00
2023-01-30T16:04:48.701Z,100.00
2023-01-30T16:07:26.921Z,100.00
2023-01-30T16:10:07.309Z,100.00
2023-01-30T16:12:36.688Z,100.00
2023-01-30T16:15:18.698Z,100.00
2023-01-30T16:17:56.865Z,100.00
2023-01-30T16:20:24.086Z,100.00
2023-01-30T16:22:51.372Z,100.00
2023-01-30T16:25:25.350Z,100.00
2023-01-30T16:27:53.915Z,100.00
2023-01-30T16:30:24.825Z,100.00
2023-01-30T16:32:54.434Z,100.00
2023-01-30T16:35:27.226Z,100.00
2023-01-30T16:37:57.766Z,100.00
2023-01-30T16:40:34.680Z,100.00
2023-01-30T16:43:19.813Z,100.00
2023-01-30T16:45:53.170Z,100.00
2023-01-30T16:48:20.330Z,100.00
2023-01-30T16:51:00.618Z,100.00
2023-01-30T16:53:32.668Z,100.00
2023-01-30T16:56:07.894Z,100.00
2023-01-30T16:58:37.010Z,100.00
2023-01-30T17:01:08.846Z,100.00
2023-01-30T17:03:39.421Z,100.00
2023-01-30T17:06:15.339Z,100.00
2023-01-30T17:08:48.434Z,100.00
2023-01-30T17:11:42.804Z,100.00
2023-01-30T17:14:27.650Z,100.00
2023-01-30T17:17:08.541Z,100.00
2023-01-30T17:19:36.654Z,100.00
2023-01-30T17:22:07.006Z,100.00
2023-01-30T17:24:36.322Z,100.00
2023-01-30T17:27:04.815Z,100.00
2023-01-30T17:29:49.122Z,100.00
2023-01-30T17:32:16.776Z,100.00
2023-01-30T17:34:44.007Z,100.00
2023-01-30T17:37:17.333Z,100.00
2023-01-30T17:39:44.842Z,100.00
2023-01-30T17:42:13.749Z,100.00
2023-01-30T17:44:41.152Z,100.00
2023-01-30T17:47:11.868Z,100.00
2023-01-30T17:49:39.373Z,100.00
2023-01-30T17:52:07.303Z,100.00
2023-01-30T17:54:34.534Z,100.00
2023-01-30T17:57:04.916Z,100.00
2023-01-30T17:59:32.854Z,100.00
2023-01-30T18:02:00.383Z,100.00
2023-01-30T18:04:27.587Z,100.00
2023-01-30T18:07:03.855Z,100.00
2023-01-30T18:09:32.111Z,100.00
2023-01-30T18:11:59.317Z,100.00
2023-01-30T18:14:26.406Z,100.00
2023-01-30T18:17:00.161Z,100.00
2023-01-30T18:19:29.162Z,100.00
2023-01-30T18:21:58.507Z,100.00
2023-01-30T18:24:26.018Z,100.00
2023-01-30T18:26:53.388Z,100.00
2023-01-30T18:29:20.830Z,100.00
2023-01-30T18:31:48.063Z,100.00
2023-01-30T18:34:15.217Z,100.00
2023-01-30T18:36:42.432Z,100.00
2023-01-30T18:39:09.499Z,100.00
2023-01-30T18:41:36.750Z,100.00
2023-01-30T18:44:05.855Z,100.00
2023-01-30T18:46:33.609Z,100.00
2023-01-30T18:49:00.964Z,100.00
2023-01-30T18:51:34.108Z,100.00
2023-01-30T18:54:01.996Z,100.00
2023-01-30T18:56:32.054Z,100.00
2023-01-30T18:59:03.402Z,100.00
2023-01-30T19:01:36.847Z,100.00
2023-01-30T19:04:06.094Z,100.00
2023-01-30T19:06:37.311Z,100.00
2023-01-30T19:09:05.545Z,100.00
2023-01-30T19:11:51.697Z,100.00
2023-01-30T19:14:19.192Z,100.00
2023-01-30T19:16:46.338Z,100.00
2023-01-30T19:19:13.806Z,100.00
2023-01-30T19:21:40.876Z,100.00
2023-01-30T19:24:12.455Z,100.00
2023-01-30T19:26:40.064Z,100.00
2023-01-30T19:29:07.236Z,100.00
2023-01-30T19:31:34.410Z,100.00
2023-01-30T19:34:06.827Z,100.00
2023-01-30T19:36:36.328Z,100.00
2023-01-30T19:39:05.915Z,100.00
2023-01-30T19:41:35.853Z,100.00
2023-01-30T19:44:05.214Z,100.00
2023-01-30T19:46:32.817Z,100.00
2023-01-30T19:49:00.159Z,100.00
2023-01-30T19:51:30.119Z,100.00
2023-01-30T19:54:02.300Z,100.00
2023-01-30T19:56:30.467Z,100.00
2023-01-30T19:58:59.537Z,100.00
2023-01-30T20:01:29.907Z,100.00
2023-01-30T20:03:57.703Z,100.00
2023-01-30T20:06:27.711Z,100.00
2023-01-30T20:08:58.537Z,100.00
2023-01-30T20:11:26.014Z,100.00
2023-01-30T20:13:53.734Z,100.00
2023-01-30T20:16:25.651Z,100.00
2023-01-30T20:18:58.412Z,100.00
2023-01-30T20:21:26.355Z,100.00
2023-01-30T20:23:53.914Z,100.00
2023-01-30T20:26:26.683Z,100.00
2023-01-30T20:28:57.861Z,100.00
2023-01-30T20:31:27.774Z,100.00
2023-01-30T20:33:57.672Z,100.00
2023-01-30T20:36:27.317Z,100.00
2023-01-30T20:38:55.776Z,100.00
2023-01-30T20:41:25.554Z,100.00
2023-01-30T20:43:57.503Z,100.00
2023-01-30T20:46:27.629Z,100.00
2023-01-30T20:48:57.013Z,100.00
2023-01-30T20:51:27.718Z,100.00
2023-01-30T20:54:00.201Z,100.00
2023-01-30T20:56:31.954Z,100.00
2023-01-30T20:58:59.113Z,100.00
2023-01-30T21:01:26.276Z,100.00
2023-01-30T21:03:54.516Z,100.00
2023-01-30T21:06:41.239Z,100.00
2023-01-30T21:09:19.713Z,100.00
2023-01-30T21:11:48.975Z,100.00
2023-01-30T21:14:17.543Z,100.00
2023-01-30T21:16:45.023Z,100.00
2023-01-30T21:19:16.131Z,100.00
2023-01-30T21:21:51.018Z,100.00
2023-01-30T21:24:21.963Z,100.00
2023-01-30T21:26:49.131Z,100.00
2023-01-30T21:29:18.869Z,100.00
2023-01-30T21:31:46.563Z,100.00
2023-01-30T21:34:14.097Z,100.00
2023-01-30T21:36:41.607Z,100.00
2023-01-30T21:39:31.871Z,100.00
2023-01-30T21:41:58.868Z,100.00
2023-01-30T21:44:28.653Z,100.00
2023-01-30T21:46:56.045Z,100.00
2023-01-30T21:49:28.268Z,100.00
2023-01-30T21:51:55.732Z,100.00
2023-01-30T21:54:23.290Z,100.00
2023-01-30T21:56:51.114Z,100.00
2023-01-30T21:59:18.420Z,100.00
2023-01-30T22:01:46.431Z,100.00
2023-01-30T22:04:15.587Z,100.00
2023-01-30T22:06:43.610Z,100.00
2023-01-30T22:09:15.387Z,100.00
2023-01-30T22:11:43.359Z,100.00
2023-01-30T22:14:13.539Z,100.00
2023-01-30T22:16:41.203Z,100.00
2023-01-30T22:19:08.812Z,100.00
2023-01-30T22:21:40.422Z,100.00
2023-01-30T22:24:09.127Z,100.00
2023-01-30T22:26:36.722Z,100.00
2023-01-30T22:29:06.575Z,100.00
2023-01-30T22:31:36.452Z,100.00
2023-01-30T22:34:04.786Z,100.00
2023-01-30T22:36:33.839Z,100.00
2023-01-30T22:39:02.136Z,100.00
2023-01-30T22:41:34.857Z,100.00
2023-01-30T22:44:03.149Z,100.00
2023-01-30T22:46:32.989Z,100.00
2023-01-30T22:49:01.487Z,100.00
2023-01-30T22:51:40.539Z,100.00
2023-01-30T22:54:11.500Z,100.00
2023-01-30T22:56:41.122Z,100.00
2023-01-30T22:59:09.264Z,100.00
2023-01-30T23:01:39.338Z,100.00
2023-01-30T23:04:07.755Z,100.00
2023-01-30T23:06:34.889Z,100.00
2023-01-30T23:09:03.244Z,100.00
2023-01-30T23:11:33.628Z,100.00
2023-01-30T23:14:15.213Z,100.00
2023-01-30T23:16:45.248Z,100.00
2023-01-30T23:19:13.735Z,100.00
2023-01-30T23:21:43.638Z,100.00
2023-01-30T23:24:16.844Z,100.00
2023-01-30T23:26:46.572Z,99.90
2023-01-30T23:29:17.719Z,100.00
2023-01-30T23:31:45.879Z,99.57
2023-01-30T23:34:18.372Z,99.38
2023-01-30T23:36:46.665Z,99.37
2023-01-30T23:39:14.796Z,99.33
2023-01-30T23:41:42.911Z,99.36
2023-01-30T23:44:10.615Z,99.28
2023-01-30T23:46:40.297Z,99.17
2023-01-30T23:49:12.432Z,98.80
2023-01-30T23:51:41.869Z,98.80
2023-01-30T23:54:09.794Z,98.53
2023-01-30T23:56:40.439Z,98.29
2023-01-30T23:59:08.195Z,97.62
